Check out our new PWSWeather beta!
PWSweather.com
Personal Weather Stations
Station Observations
GIRWX1
Presovsky Kraj, GiraltovceSK

Presovsky KrajGiraltovceSK

Lat: 49.118, Lon: 21.52

Elevation: 630

Station Type: wh1080

http://www.meteogiraltovce.wz.cz/

High Low Average
Temperature 42.3°F5.7°C 24.6°F-4.1°C 34.8°F1.6°C
Dew Point 34.9°F1.6°C 17.1°F-8.3°C 24.6°F-4.1°C
Winds 13.2 mph 21.2 kmh Calm Calm 4.0 mph SE6.4 kmh SE
Wind Gusts 21.3 mph34.3 kmh -- 7.0 mph11.3 kmh
Humidity 86% 49% 67%
Pressure 30.28 in1025.4 mb 29.80 in1009.1 mb -
Precipitation 0.00 in0.0 mm - -
Hour Temp Dew Point Humidity Winds Wind Gusts Pressure Precip Precip Rate Daily Precip Total
12:00 AM 39.0°F3.9°C 34.9°F1.6°C 85% 1.7 mph NNE2.7 kmh NNE 3.1 mph5.0 kmh 29.80 in1009.1 mb 0.00 in0.0 mm 0.00 in0.0 mm 0.00 in0.0 mm
12:05 AM 39.0°F3.9°C 34.9°F1.6°C 85% 1.6 mph NE2.6 kmh NE 2.2 mph3.5 kmh 29.80 in1009.1 mb 0.00 in0.0 mm 0.00 in0.0 mm 0.00 in0.0 mm
12:10 AM 38.9°F3.8°C 34.8°F1.6°C 85% 1.6 mph NNE2.6 kmh NNE 2.2 mph3.5 kmh 29.80 in1009.1 mb 0.00 in0.0 mm 0.00 in0.0 mm 0.00 in0.0 mm
12:15 AM 38.7°F3.7°C 34.5°F1.4°C 85% 1.2 mph N1.9 kmh N 2.2 mph3.5 kmh 29.80 in1009.1 mb 0.00 in0.0 mm 0.00 in0.0 mm 0.00 in0.0 mm
12:20 AM 38.5°F3.6°C 34.4°F1.3°C 85% 1.9 mph 3.1 kmh 3.1 mph5.0 kmh 29.80 in1009.1 mb 0.00 in0.0 mm 0.00 in0.0 mm 0.00 in0.0 mm
12:25 AM 38.5°F3.6°C 34.4°F1.3°C 85% 2.9 mph N4.7 kmh N 3.8 mph6.1 kmh 29.80 in1009.1 mb 0.00 in0.0 mm 0.00 in0.0 mm 0.00 in0.0 mm
12:30 AM 38.3°F3.5°C 34.2°F1.2°C 85% 1.1 mph N1.8 kmh N 2.2 mph3.5 kmh 29.80 in1009.1 mb 0.00 in0.0 mm 0.00 in0.0 mm 0.00 in0.0 mm
12:35 AM 38.3°F3.5°C 34.2°F1.2°C 85% 0.2 mph SW0.3 kmh SW 1.6 mph2.6 kmh 29.81 in1009.5 mb 0.00 in0.0 mm 0.00 in0.0 mm 0.00 in0.0 mm
12:40 AM 38.3°F3.5°C 34.2°F1.2°C 85% 0.3 mph SW0.5 kmh SW 1.6 mph2.6 kmh 29.81 in1009.5 mb 0.00 in0.0 mm 0.00 in0.0 mm 0.00 in0.0 mm
12:45 AM 38.1°F3.4°C 34.0°F1.1°C 85% 0.2 mph SW0.3 kmh SW 1.6 mph2.6 kmh 29.81 in1009.5 mb 0.00 in0.0 mm 0.00 in0.0 mm 0.00 in0.0 mm
12:50 AM 38.1°F3.4°C 34.0°F1.1°C 85% 0.4 mph WSW0.6 kmh WSW 1.6 mph2.6 kmh 29.81 in1009.5 mb 0.00 in0.0 mm 0.00 in0.0 mm 0.00 in0.0 mm
12:55 AM 38.1°F3.4°C 34.0°F1.1°C 85% 0.9 mph WSW1.4 kmh WSW 2.2 mph3.5 kmh 29.82 in1009.8 mb 0.00 in0.0 mm 0.00 in0.0 mm 0.00 in0.0 mm
01:00 AM 38.1°F3.4°C 34.0°F1.1°C 85% 0.7 mph SW1.1 kmh SW 1.6 mph2.6 kmh 29.82 in1009.8 mb 0.00 in0.0 mm 0.00 in0.0 mm 0.00 in0.0 mm
01:05 AM 38.1°F3.4°C 34.0°F1.1°C 85% 0.2 mph W0.3 kmh W 1.6 mph2.6 kmh 29.82 in1009.8 mb 0.00 in0.0 mm 0.00 in0.0 mm 0.00 in0.0 mm
01:10 AM 37.9°F3.3°C 33.8°F1.0°C 85% 0.2 mph W0.3 kmh W 1.6 mph2.6 kmh 29.82 in1009.8 mb 0.00 in0.0 mm 0.00 in0.0 mm 0.00 in0.0 mm
01:15 AM 37.9°F3.3°C 33.8°F1.0°C 85% 1.0 mph NE1.6 kmh NE 3.8 mph6.1 kmh 29.82 in1009.8 mb 0.00 in0.0 mm 0.00 in0.0 mm 0.00 in0.0 mm
01:20 AM 37.7°F3.2°C 33.6°F0.9°C 85% 1.3 mph NNE2.1 kmh NNE 3.1 mph5.0 kmh 29.83 in1010.2 mb 0.00 in0.0 mm 0.00 in0.0 mm 0.00 in0.0 mm
01:25 AM 37.6°F3.1°C 33.5°F0.8°C 85% Calm Calm 0.7 mph1.1 kmh 29.83 in1010.2 mb 0.00 in0.0 mm 0.00 in0.0 mm 0.00 in0.0 mm
01:30 AM 37.5°F3.1°C 33.1°F0.6°C 84% 0.5 mph NE0.8 kmh NE 2.2 mph3.5 kmh 29.83 in1010.2 mb 0.00 in0.0 mm 0.00 in0.0 mm 0.00 in0.0 mm
01:35 AM 37.3°F2.9°C 32.9°F0.5°C 84% 1.6 mph NNE2.6 kmh NNE 2.2 mph3.5 kmh 29.83 in1010.2 mb 0.00 in0.0 mm 0.00 in0.0 mm 0.00 in0.0 mm
01:40 AM 37.2°F2.9°C 32.8°F0.4°C 84% 1.2 mph N1.9 kmh N 2.2 mph3.5 kmh 29.84 in1010.5 mb 0.00 in0.0 mm 0.00 in0.0 mm 0.00 in0.0 mm
01:45 AM 37.0°F2.8°C 32.7°F0.4°C 84% 0.1 mph W0.2 kmh W 0.7 mph1.1 kmh 29.84 in1010.5 mb 0.00 in0.0 mm 0.00 in0.0 mm 0.00 in0.0 mm
01:50 AM 37.0°F2.8°C 32.6°F0.3°C 84% Calm Calm 0.7 mph1.1 kmh 29.84 in1010.5 mb 0.00 in0.0 mm 0.00 in0.0 mm 0.00 in0.0 mm
01:55 AM 36.9°F2.7°C 32.5°F0.3°C 84% 0.9 mph WSW1.4 kmh WSW 2.2 mph3.5 kmh 29.84 in1010.5 mb 0.00 in0.0 mm 0.00 in0.0 mm 0.00 in0.0 mm
02:00 AM 36.8°F2.7°C 32.4°F0.2°C 84% 0.8 mph WSW1.3 kmh WSW 2.2 mph3.5 kmh 29.84 in1010.5 mb 0.00 in0.0 mm 0.00 in0.0 mm 0.00 in0.0 mm
02:05 AM 36.7°F2.6°C 32.3°F0.2°C 84% Calm Calm 0.7 mph1.1 kmh 29.84 in1010.5 mb 0.00 in0.0 mm 0.00 in0.0 mm 0.00 in0.0 mm
02:10 AM 36.7°F2.6°C 32.3°F0.2°C 84% 0.8 mph NE1.3 kmh NE 3.1 mph5.0 kmh 29.85 in1010.8 mb 0.00 in0.0 mm 0.00 in0.0 mm 0.00 in0.0 mm
02:15 AM 36.5°F2.5°C 32.1°F0.1°C 84% 1.8 mph NE2.9 kmh NE 3.1 mph5.0 kmh 29.85 in1010.8 mb 0.00 in0.0 mm 0.00 in0.0 mm 0.00 in0.0 mm
02:20 AM 36.3°F2.4°C 32.0°F0.0°C 84% 2.5 mph NE4.0 kmh NE 3.8 mph6.1 kmh 29.85 in1010.8 mb 0.00 in0.0 mm 0.00 in0.0 mm 0.00 in0.0 mm
02:25 AM 36.2°F2.3°C 31.9°F-0.1°C 84% 3.1 mph NNE5.0 kmh NNE 4.5 mph7.2 kmh 29.85 in1010.8 mb 0.00 in0.0 mm 0.00 in0.0 mm 0.00 in0.0 mm
02:30 AM 36.1°F2.3°C 31.8°F-0.1°C 84% 2.3 mph N3.7 kmh N 4.5 mph7.2 kmh 29.85 in1010.8 mb 0.00 in0.0 mm 0.00 in0.0 mm 0.00 in0.0 mm
02:35 AM 36.0°F2.2°C 31.7°F-0.2°C 84% 2.0 mph E3.2 kmh E 3.8 mph6.1 kmh 29.85 in1010.8 mb 0.00 in0.0 mm 0.00 in0.0 mm 0.00 in0.0 mm
02:40 AM 35.9°F2.2°C 31.6°F-0.2°C 84% 2.9 mph N4.7 kmh N 3.8 mph6.1 kmh 29.85 in1010.8 mb 0.00 in0.0 mm 0.00 in0.0 mm 0.00 in0.0 mm
02:45 AM 35.8°F2.1°C 31.4°F-0.3°C 84% 1.7 mph W2.7 kmh W 3.1 mph5.0 kmh 29.86 in1011.2 mb 0.00 in0.0 mm 0.00 in0.0 mm 0.00 in0.0 mm
02:50 AM 35.6°F2.0°C 31.3°F-0.4°C 84% 2.2 mph NNE3.5 kmh NNE 4.5 mph7.2 kmh 29.86 in1011.2 mb 0.00 in0.0 mm 0.00 in0.0 mm 0.00 in0.0 mm
02:55 AM 35.6°F2.0°C 31.2°F-0.4°C 84% 2.1 mph NE3.4 kmh NE 3.1 mph5.0 kmh 29.86 in1011.2 mb 0.00 in0.0 mm 0.00 in0.0 mm 0.00 in0.0 mm
03:00 AM 35.4°F1.9°C 31.1°F-0.5°C 84% 0.5 mph NNE0.8 kmh NNE 1.6 mph2.6 kmh 29.86 in1011.2 mb 0.00 in0.0 mm 0.00 in0.0 mm 0.00 in0.0 mm
03:05 AM 35.3°F1.8°C 31.0°F-0.6°C 84% 1.5 mph NE2.4 kmh NE 3.1 mph5.0 kmh 29.86 in1011.2 mb 0.00 in0.0 mm 0.00 in0.0 mm 0.00 in0.0 mm
03:10 AM 35.2°F1.8°C 30.9°F-0.6°C 84% 2.9 mph N4.7 kmh N 4.5 mph7.2 kmh 29.86 in1011.2 mb 0.00 in0.0 mm 0.00 in0.0 mm 0.00 in0.0 mm
03:15 AM 35.1°F1.7°C 30.8°F-0.7°C 84% 0.5 mph S0.8 kmh S 1.6 mph2.6 kmh 29.86 in1011.2 mb 0.00 in0.0 mm 0.00 in0.0 mm 0.00 in0.0 mm
03:20 AM 35.0°F1.7°C 30.7°F-0.7°C 84% 0.2 mph S0.3 kmh S 1.6 mph2.6 kmh 29.86 in1011.2 mb 0.00 in0.0 mm 0.00 in0.0 mm 0.00 in0.0 mm
03:25 AM 34.9°F1.6°C 30.5°F-0.8°C 84% 0.2 mph SW0.3 kmh SW 0.7 mph1.1 kmh 29.86 in1011.2 mb 0.00 in0.0 mm 0.00 in0.0 mm 0.00 in0.0 mm
03:30 AM 34.8°F1.6°C 30.5°F-0.8°C 84% 0.2 mph NE0.3 kmh NE 1.6 mph2.6 kmh 29.87 in1011.5 mb 0.00 in0.0 mm 0.00 in0.0 mm 0.00 in0.0 mm
03:35 AM 34.7°F1.5°C 30.4°F-0.9°C 84% 1.5 mph NE2.4 kmh NE 3.1 mph5.0 kmh 29.87 in1011.5 mb 0.00 in0.0 mm 0.00 in0.0 mm 0.00 in0.0 mm
03:40 AM 34.8°F1.6°C 30.5°F-0.8°C 84% 1.8 mph NNW2.9 kmh NNW 3.1 mph5.0 kmh 29.87 in1011.5 mb 0.00 in0.0 mm 0.00 in0.0 mm 0.00 in0.0 mm
03:45 AM 34.9°F1.6°C 30.5°F-0.8°C 84% 0.1 mph SW0.2 kmh SW 0.7 mph1.1 kmh 29.87 in1011.5 mb 0.00 in0.0 mm 0.00 in0.0 mm 0.00 in0.0 mm
03:50 AM 34.9°F1.6°C 30.5°F-0.8°C 84% 0.8 mph NE1.3 kmh NE 2.2 mph3.5 kmh 29.87 in1011.5 mb 0.00 in0.0 mm 0.00 in0.0 mm 0.00 in0.0 mm
03:55 AM 35.0°F1.7°C 30.6°F-0.8°C 84% 1.8 mph NE2.9 kmh NE 3.1 mph5.0 kmh 29.87 in1011.5 mb 0.00 in0.0 mm 0.00 in0.0 mm 0.00 in0.0 mm
04:00 AM 35.1°F1.7°C 30.9°F-0.6°C 85% 2.7 mph NNE4.3 kmh NNE 4.5 mph7.2 kmh 29.87 in1011.5 mb 0.00 in0.0 mm 0.00 in0.0 mm 0.00 in0.0 mm
04:05 AM 35.1°F1.7°C 31.0°F-0.6°C 85% 2.2 mph 3.5 kmh 3.1 mph5.0 kmh 29.87 in1011.5 mb 0.00 in0.0 mm 0.00 in0.0 mm 0.00 in0.0 mm
04:10 AM 35.1°F1.7°C 31.0°F-0.6°C 85% 1.7 mph WNW2.7 kmh WNW 3.1 mph5.0 kmh 29.87 in1011.5 mb 0.00 in0.0 mm 0.00 in0.0 mm 0.00 in0.0 mm
04:15 AM 35.1°F1.7°C 31.0°F-0.6°C 85% 1.5 mph NW2.4 kmh NW 3.8 mph6.1 kmh 29.87 in1011.5 mb 0.00 in0.0 mm 0.00 in0.0 mm 0.00 in0.0 mm
04:20 AM 35.1°F1.7°C 31.0°F-0.6°C 85% 3.9 mph N6.3 kmh N 6.9 mph11.1 kmh 29.88 in1011.9 mb 0.00 in0.0 mm 0.00 in0.0 mm 0.00 in0.0 mm
04:25 AM 35.4°F1.9°C 31.4°F-0.3°C 85% 10.4 mph N16.7 kmh N 15.2 mph24.5 kmh 29.88 in1011.9 mb 0.00 in0.0 mm 0.00 in0.0 mm 0.00 in0.0 mm
04:30 AM 36.1°F2.3°C 32.1°F0.1°C 85% 9.7 mph N15.6 kmh N 15.2 mph24.5 kmh 29.88 in1011.9 mb 0.00 in0.0 mm 0.00 in0.0 mm 0.00 in0.0 mm
04:35 AM 36.7°F2.6°C 33.0°F0.6°C 86% 11.4 mph NNW18.3 kmh NNW 14.5 mph23.3 kmh 29.88 in1011.9 mb 0.00 in0.0 mm 0.00 in0.0 mm 0.00 in0.0 mm
04:40 AM 37.3°F2.9°C 33.5°F0.8°C 86% 5.0 mph NNE8.0 kmh NNE 11.4 mph18.3 kmh 29.89 in1012.2 mb 0.00 in0.0 mm 0.00 in0.0 mm 0.00 in0.0 mm
04:45 AM 37.6°F3.1°C 33.8°F1.0°C 86% 1.5 mph S2.4 kmh S 6.0 mph9.7 kmh 29.89 in1012.2 mb 0.00 in0.0 mm 0.00 in0.0 mm 0.00 in0.0 mm
04:50 AM 37.8°F3.2°C 33.8°F1.0°C 85% 5.3 mph NE8.5 kmh NE 9.2 mph14.8 kmh 29.89 in1012.2 mb 0.00 in0.0 mm 0.00 in0.0 mm 0.00 in0.0 mm
04:55 AM 37.8°F3.2°C 33.7°F0.9°C 85% 5.8 mph NNE9.3 kmh NNE 13.0 mph20.9 kmh 29.89 in1012.2 mb 0.00 in0.0 mm 0.00 in0.0 mm 0.00 in0.0 mm
05:00 AM 37.8°F3.2°C 33.3°F0.7°C 84% 7.0 mph N11.3 kmh N 11.4 mph18.3 kmh 29.89 in1012.2 mb 0.00 in0.0 mm 0.00 in0.0 mm 0.00 in0.0 mm
05:05 AM 38.0°F3.3°C 33.0°F0.6°C 82% 6.6 mph N10.6 kmh N 12.1 mph19.5 kmh 29.89 in1012.2 mb 0.00 in0.0 mm 0.00 in0.0 mm 0.00 in0.0 mm
05:10 AM 38.2°F3.4°C 32.6°F0.3°C 80% 6.7 mph NNE10.8 kmh NNE 11.4 mph18.3 kmh 29.90 in1012.5 mb 0.00 in0.0 mm 0.00 in0.0 mm 0.00 in0.0 mm
05:15 AM 38.3°F3.5°C 31.9°F-0.1°C 78% 9.0 mph 14.5 kmh 13.0 mph20.9 kmh 29.90 in1012.5 mb 0.00 in0.0 mm 0.00 in0.0 mm 0.00 in0.0 mm
05:20 AM 38.2°F3.4°C 30.9°F-0.6°C 75% 5.7 mph N9.2 kmh N 9.8 mph15.8 kmh 29.90 in1012.5 mb 0.00 in0.0 mm 0.00 in0.0 mm 0.00 in0.0 mm
05:25 AM 38.1°F3.4°C 30.1°F-1.1°C 73% 5.4 mph NNE8.7 kmh NNE 9.2 mph14.8 kmh 29.90 in1012.5 mb 0.00 in0.0 mm 0.00 in0.0 mm 0.00 in0.0 mm
05:30 AM 37.9°F3.3°C 29.5°F-1.4°C 71% 5.2 mph N8.4 kmh N 9.2 mph14.8 kmh 29.91 in1012.9 mb 0.00 in0.0 mm 0.00 in0.0 mm 0.00 in0.0 mm
05:35 AM 37.9°F3.3°C 29.4°F-1.4°C 71% 4.9 mph N7.9 kmh N 9.2 mph14.8 kmh 29.91 in1012.9 mb 0.00 in0.0 mm 0.00 in0.0 mm 0.00 in0.0 mm
05:40 AM 37.8°F3.2°C 29.2°F-1.6°C 71% 3.1 mph N5.0 kmh N 6.0 mph9.7 kmh 29.92 in1013.2 mb 0.00 in0.0 mm 0.00 in0.0 mm 0.00 in0.0 mm
05:45 AM 37.5°F3.1°C 28.6°F-1.9°C 70% 4.6 mph N7.4 kmh N 8.3 mph13.4 kmh 29.92 in1013.2 mb 0.00 in0.0 mm 0.00 in0.0 mm 0.00 in0.0 mm
05:50 AM 37.2°F2.9°C 28.3°F-2.1°C 70% 5.1 mph NNE8.2 kmh NNE 10.7 mph17.2 kmh 29.92 in1013.2 mb 0.00 in0.0 mm 0.00 in0.0 mm 0.00 in0.0 mm
05:55 AM 37.0°F2.8°C 27.9°F-2.3°C 69% 5.7 mph N9.2 kmh N 11.4 mph18.3 kmh 29.93 in1013.5 mb 0.00 in0.0 mm 0.00 in0.0 mm 0.00 in0.0 mm
06:00 AM 37.0°F2.8°C 27.6°F-2.4°C 69% 3.9 mph N6.3 kmh N 6.9 mph11.1 kmh 29.93 in1013.5 mb 0.00 in0.0 mm 0.00 in0.0 mm 0.00 in0.0 mm
06:05 AM 36.9°F2.7°C 27.3°F-2.6°C 68% 6.9 mph 11.1 kmh 8.3 mph13.4 kmh 29.93 in1013.5 mb 0.00 in0.0 mm 0.00 in0.0 mm 0.00 in0.0 mm
06:10 AM 36.7°F2.6°C 27.0°F-2.8°C 67% 5.4 mph N8.7 kmh N 8.3 mph13.4 kmh 29.93 in1013.5 mb 0.00 in0.0 mm 0.00 in0.0 mm 0.00 in0.0 mm
06:15 AM 36.6°F2.6°C 26.4°F-3.1°C 66% 4.9 mph N7.9 kmh N 9.8 mph15.8 kmh 29.94 in1013.9 mb 0.00 in0.0 mm 0.00 in0.0 mm 0.00 in0.0 mm
06:20 AM 36.5°F2.5°C 26.2°F-3.2°C 66% 3.6 mph N5.8 kmh N 7.6 mph12.2 kmh 29.94 in1013.9 mb 0.00 in0.0 mm 0.00 in0.0 mm 0.00 in0.0 mm
06:25 AM 36.3°F2.4°C 26.1°F-3.3°C 66% 2.7 mph N4.3 kmh N 4.5 mph7.2 kmh 29.95 in1014.2 mb 0.00 in0.0 mm 0.00 in0.0 mm 0.00 in0.0 mm
06:30 AM 36.2°F2.3°C 25.9°F-3.4°C 66% 2.6 mph NNE4.2 kmh NNE 6.9 mph11.1 kmh 29.95 in1014.2 mb 0.00 in0.0 mm 0.00 in0.0 mm 0.00 in0.0 mm
06:35 AM 36.0°F2.2°C 25.7°F-3.5°C 66% 2.6 mph N4.2 kmh N 6.0 mph9.7 kmh 29.95 in1014.2 mb 0.00 in0.0 mm 0.00 in0.0 mm 0.00 in0.0 mm
06:40 AM 35.8°F2.1°C 25.6°F-3.6°C 66% 2.8 mph NNE4.5 kmh NNE 6.9 mph11.1 kmh 29.96 in1014.6 mb 0.00 in0.0 mm 0.00 in0.0 mm 0.00 in0.0 mm
06:45 AM 35.8°F2.1°C 25.6°F-3.6°C 66% 4.3 mph N6.9 kmh N 7.6 mph12.2 kmh 29.96 in1014.6 mb 0.00 in0.0 mm 0.00 in0.0 mm 0.00 in0.0 mm
06:50 AM 35.8°F2.1°C 25.5°F-3.6°C 66% 7.5 mph N12.1 kmh N 11.4 mph18.3 kmh 29.96 in1014.6 mb 0.00 in0.0 mm 0.00 in0.0 mm 0.00 in0.0 mm
06:55 AM 35.8°F2.1°C 25.2°F-3.8°C 65% 6.8 mph NNE10.9 kmh NNE 11.4 mph18.3 kmh 29.96 in1014.6 mb 0.00 in0.0 mm 0.00 in0.0 mm 0.00 in0.0 mm
07:00 AM 36.0°F2.2°C 25.2°F-3.8°C 65% 5.5 mph N8.9 kmh N 9.8 mph15.8 kmh 29.96 in1014.6 mb 0.00 in0.0 mm 0.00 in0.0 mm 0.00 in0.0 mm
07:05 AM 36.1°F2.3°C 25.2°F-3.8°C 64% 7.3 mph N11.7 kmh N 13.6 mph21.9 kmh 29.97 in1014.9 mb 0.00 in0.0 mm 0.00 in0.0 mm 0.00 in0.0 mm
07:10 AM 36.3°F2.4°C 25.0°F-3.9°C 63% 9.8 mph N15.8 kmh N 16.8 mph27.0 kmh 29.97 in1014.9 mb 0.00 in0.0 mm 0.00 in0.0 mm 0.00 in0.0 mm
07:15 AM 36.5°F2.5°C 25.1°F-3.8°C 63% 7.6 mph N12.2 kmh N 13.6 mph21.9 kmh 29.97 in1014.9 mb 0.00 in0.0 mm 0.00 in0.0 mm 0.00 in0.0 mm
07:20 AM 36.5°F2.5°C 25.1°F-3.8°C 63% 8.8 mph N14.2 kmh N 18.3 mph29.5 kmh 29.98 in1015.2 mb 0.00 in0.0 mm 0.00 in0.0 mm 0.00 in0.0 mm
07:25 AM 36.7°F2.6°C 25.3°F-3.7°C 63% 12.1 mph N19.5 kmh N 16.8 mph27.0 kmh 29.98 in1015.2 mb 0.00 in0.0 mm 0.00 in0.0 mm 0.00 in0.0 mm
07:30 AM 36.7°F2.6°C 25.3°F-3.7°C 63% 10.2 mph N16.4 kmh N 14.5 mph23.3 kmh 29.98 in1015.2 mb 0.00 in0.0 mm 0.00 in0.0 mm 0.00 in0.0 mm
07:35 AM 36.8°F2.7°C 25.4°F-3.7°C 63% 6.2 mph N10.0 kmh N 12.1 mph19.5 kmh 29.98 in1015.2 mb 0.00 in0.0 mm 0.00 in0.0 mm 0.00 in0.0 mm
07:40 AM 36.8°F2.7°C 25.4°F-3.7°C 63% 7.4 mph N11.9 kmh N 12.1 mph19.5 kmh 29.99 in1015.6 mb 0.00 in0.0 mm 0.00 in0.0 mm 0.00 in0.0 mm
07:45 AM 36.8°F2.7°C 25.3°F-3.7°C 63% 9.7 mph 15.6 kmh 15.2 mph24.5 kmh 29.99 in1015.6 mb 0.00 in0.0 mm 0.00 in0.0 mm 0.00 in0.0 mm
07:50 AM 36.7°F2.6°C 24.9°F-3.9°C 62% 7.5 mph N12.1 kmh N 15.2 mph24.5 kmh 29.99 in1015.6 mb 0.00 in0.0 mm 0.00 in0.0 mm 0.00 in0.0 mm
07:55 AM 36.7°F2.6°C 25.0°F-3.9°C 62% 9.1 mph NNW14.6 kmh NNW 13.0 mph20.9 kmh 29.99 in1015.6 mb 0.00 in0.0 mm 0.00 in0.0 mm 0.00 in0.0 mm
08:00 AM 36.7°F2.6°C 24.8°F-4.0°C 62% 7.4 mph N11.9 kmh N 12.1 mph19.5 kmh 30.00 in1015.9 mb 0.00 in0.0 mm 0.00 in0.0 mm 0.00 in0.0 mm
08:05 AM 36.7°F2.6°C 24.5°F-4.2°C 61% 3.8 mph NW6.1 kmh NW 5.4 mph8.7 kmh 30.00 in1015.9 mb 0.00 in0.0 mm 0.00 in0.0 mm 0.00 in0.0 mm
08:10 AM 36.7°F2.6°C 24.5°F-4.2°C 61% 5.5 mph NNW8.9 kmh NNW 13.0 mph20.9 kmh 30.00 in1015.9 mb 0.00 in0.0 mm 0.00 in0.0 mm 0.00 in0.0 mm
08:15 AM 36.7°F2.6°C 24.3°F-4.3°C 60% 6.2 mph NNE10.0 kmh NNE 11.4 mph18.3 kmh 30.00 in1015.9 mb 0.00 in0.0 mm 0.00 in0.0 mm 0.00 in0.0 mm
08:20 AM 37.4°F3.0°C 25.3°F-3.7°C 61% 6.7 mph N10.8 kmh N 9.8 mph15.8 kmh 30.01 in1016.3 mb 0.00 in0.0 mm 0.00 in0.0 mm 0.00 in0.0 mm
08:25 AM 38.1°F3.4°C 26.3°F-3.2°C 62% 3.7 mph N6.0 kmh N 6.9 mph11.1 kmh 30.01 in1016.3 mb 0.00 in0.0 mm 0.00 in0.0 mm 0.00 in0.0 mm
08:30 AM 38.3°F3.5°C 26.2°F-3.2°C 61% 3.5 mph N5.6 kmh N 9.2 mph14.8 kmh 30.02 in1016.6 mb 0.00 in0.0 mm 0.00 in0.0 mm 0.00 in0.0 mm
08:35 AM 38.3°F3.5°C 26.0°F-3.3°C 61% 4.8 mph N7.7 kmh N 6.9 mph11.1 kmh 30.02 in1016.6 mb 0.00 in0.0 mm 0.00 in0.0 mm 0.00 in0.0 mm
08:40 AM 38.1°F3.4°C 25.6°F-3.6°C 60% 6.2 mph N10.0 kmh N 9.2 mph14.8 kmh 30.02 in1016.6 mb 0.00 in0.0 mm 0.00 in0.0 mm 0.00 in0.0 mm
08:45 AM 38.4°F3.6°C 25.7°F-3.5°C 60% 6.8 mph NNW10.9 kmh NNW 11.4 mph18.3 kmh 30.02 in1016.6 mb 0.00 in0.0 mm 0.00 in0.0 mm 0.00 in0.0 mm
08:50 AM 38.8°F3.8°C 26.1°F-3.3°C 60% 6.6 mph NNW10.6 kmh NNW 9.8 mph15.8 kmh 30.02 in1016.6 mb 0.00 in0.0 mm 0.00 in0.0 mm 0.00 in0.0 mm
08:55 AM 38.8°F3.8°C 26.2°F-3.2°C 60% 7.6 mph NNW12.2 kmh NNW 13.0 mph20.9 kmh 30.02 in1016.6 mb 0.00 in0.0 mm 0.00 in0.0 mm 0.00 in0.0 mm
09:00 AM 38.8°F3.8°C 26.4°F-3.1°C 61% 7.2 mph NNW11.6 kmh NNW 9.8 mph15.8 kmh 30.02 in1016.6 mb 0.00 in0.0 mm 0.00 in0.0 mm 0.00 in0.0 mm
09:05 AM 38.7°F3.7°C 26.3°F-3.2°C 61% 8.8 mph NNW14.2 kmh NNW 12.1 mph19.5 kmh 30.02 in1016.6 mb 0.00 in0.0 mm 0.00 in0.0 mm 0.00 in0.0 mm
09:10 AM 38.8°F3.8°C 26.2°F-3.2°C 60% 8.0 mph NNW12.9 kmh NNW 12.1 mph19.5 kmh 30.03 in1016.9 mb 0.00 in0.0 mm 0.00 in0.0 mm 0.00 in0.0 mm
09:15 AM 39.1°F3.9°C 26.8°F-2.9°C 61% 9.4 mph NNW15.1 kmh NNW 18.3 mph29.5 kmh 30.03 in1016.9 mb 0.00 in0.0 mm 0.00 in0.0 mm 0.00 in0.0 mm
09:20 AM 39.7°F4.3°C 26.5°F-3.1°C 59% 12.6 mph N20.3 kmh N 20.6 mph33.2 kmh 30.03 in1016.9 mb 0.00 in0.0 mm 0.00 in0.0 mm 0.00 in0.0 mm
09:25 AM 39.9°F4.4°C 25.9°F-3.4°C 57% 11.5 mph N18.5 kmh N 17.4 mph28.0 kmh 30.03 in1016.9 mb 0.00 in0.0 mm 0.00 in0.0 mm 0.00 in0.0 mm
09:30 AM 40.1°F4.5°C 25.5°F-3.6°C 56% 10.6 mph N17.1 kmh N 19.0 mph30.6 kmh 30.03 in1016.9 mb 0.00 in0.0 mm 0.00 in0.0 mm 0.00 in0.0 mm
09:35 AM 40.3°F4.6°C 26.7°F-2.9°C 58% 10.3 mph NNW16.6 kmh NNW 15.2 mph24.5 kmh 30.04 in1017.3 mb 0.00 in0.0 mm 0.00 in0.0 mm 0.00 in0.0 mm
09:40 AM 40.8°F4.9°C 28.3°F-2.1°C 61% 10.7 mph NW17.2 kmh NW 15.9 mph25.6 kmh 30.04 in1017.3 mb 0.00 in0.0 mm 0.00 in0.0 mm 0.00 in0.0 mm
09:45 AM 41.1°F5.1°C 28.4°F-2.0°C 60% 8.2 mph NW13.2 kmh NW 13.6 mph21.9 kmh 30.04 in1017.3 mb 0.00 in0.0 mm 0.00 in0.0 mm 0.00 in0.0 mm
09:50 AM 41.5°F5.3°C 28.9°F-1.7°C 60% 8.9 mph NW14.3 kmh NW 16.8 mph27.0 kmh 30.05 in1017.6 mb 0.00 in0.0 mm 0.00 in0.0 mm 0.00 in0.0 mm
09:55 AM 41.8°F5.4°C 29.3°F-1.5°C 61% 12.3 mph NW19.8 kmh NW 16.8 mph27.0 kmh 30.05 in1017.6 mb 0.00 in0.0 mm 0.00 in0.0 mm 0.00 in0.0 mm
10:00 AM 41.9°F5.5°C 29.3°F-1.5°C 61% 13.2 mph NW21.2 kmh NW 20.6 mph33.2 kmh 30.05 in1017.6 mb 0.00 in0.0 mm 0.00 in0.0 mm 0.00 in0.0 mm
10:05 AM 42.3°F5.7°C 30.2°F-1.0°C 62% 12.1 mph NW19.5 kmh NW 14.5 mph23.3 kmh 30.05 in1017.6 mb 0.00 in0.0 mm 0.00 in0.0 mm 0.00 in0.0 mm
10:10 AM 41.6°F5.3°C 28.6°F-1.9°C 60% 11.2 mph N18.0 kmh N 17.4 mph28.0 kmh 30.06 in1017.9 mb 0.00 in0.0 mm 0.00 in0.0 mm 0.00 in0.0 mm
10:15 AM 40.5°F4.7°C 26.9°F-2.8°C 58% 5.8 mph N9.3 kmh N 10.7 mph17.2 kmh 30.06 in1017.9 mb 0.00 in0.0 mm 0.00 in0.0 mm 0.00 in0.0 mm
10:20 AM 39.6°F4.2°C 26.7°F-2.9°C 59% 4.9 mph N7.9 kmh N 8.3 mph13.4 kmh 30.06 in1017.9 mb 0.00 in0.0 mm 0.00 in0.0 mm 0.00 in0.0 mm
10:25 AM 39.7°F4.3°C 27.6°F-2.4°C 62% 9.8 mph N15.8 kmh N 14.5 mph23.3 kmh 30.06 in1017.9 mb 0.00 in0.0 mm 0.00 in0.0 mm 0.00 in0.0 mm
10:30 AM 40.1°F4.5°C 28.2°F-2.1°C 62% 8.4 mph N13.5 kmh N 13.6 mph21.9 kmh 30.06 in1017.9 mb 0.00 in0.0 mm 0.00 in0.0 mm 0.00 in0.0 mm
10:35 AM 40.8°F4.9°C 29.6°F-1.3°C 64% 10.2 mph N16.4 kmh N 15.9 mph25.6 kmh 30.06 in1017.9 mb 0.00 in0.0 mm 0.00 in0.0 mm 0.00 in0.0 mm
10:40 AM 41.6°F5.3°C 31.0°F-0.6°C 66% 10.1 mph NW16.3 kmh NW 15.2 mph24.5 kmh 30.06 in1017.9 mb 0.00 in0.0 mm 0.00 in0.0 mm 0.00 in0.0 mm
10:45 AM 42.2°F5.7°C 31.4°F-0.3°C 65% 9.3 mph NW15.0 kmh NW 13.0 mph20.9 kmh 30.06 in1017.9 mb 0.00 in0.0 mm 0.00 in0.0 mm 0.00 in0.0 mm
10:50 AM 42.1°F5.6°C 30.4°F-0.9°C 63% 7.6 mph N12.2 kmh N 14.5 mph23.3 kmh 30.06 in1017.9 mb 0.00 in0.0 mm 0.00 in0.0 mm 0.00 in0.0 mm
10:55 AM 41.8°F5.4°C 29.7°F-1.3°C 62% 8.3 mph N13.4 kmh N 15.9 mph25.6 kmh 30.06 in1017.9 mb 0.00 in0.0 mm 0.00 in0.0 mm 0.00 in0.0 mm
11:00 AM 41.6°F5.3°C 29.1°F-1.6°C 61% 8.2 mph N13.2 kmh N 15.9 mph25.6 kmh 30.06 in1017.9 mb 0.00 in0.0 mm 0.00 in0.0 mm 0.00 in0.0 mm
11:05 AM 41.5°F5.3°C 28.7°F-1.8°C 60% 9.8 mph NNW15.8 kmh NNW 11.4 mph18.3 kmh 30.06 in1017.9 mb 0.00 in0.0 mm 0.00 in0.0 mm 0.00 in0.0 mm
11:10 AM 41.4°F5.2°C 28.2°F-2.1°C 59% 10.8 mph NNW17.4 kmh NNW 17.4 mph28.0 kmh 30.06 in1017.9 mb 0.00 in0.0 mm 0.00 in0.0 mm 0.00 in0.0 mm
11:15 AM 41.4°F5.2°C 27.2°F-2.7°C 57% 10.9 mph NNE17.5 kmh NNE 21.3 mph34.3 kmh 30.06 in1017.9 mb 0.00 in0.0 mm 0.00 in0.0 mm 0.00 in0.0 mm
11:20 AM 41.3°F5.2°C 26.6°F-3.0°C 55% 8.1 mph N13.0 kmh N 13.0 mph20.9 kmh 30.06 in1017.9 mb 0.00 in0.0 mm 0.00 in0.0 mm 0.00 in0.0 mm
11:25 AM 40.7°F4.8°C 25.0°F-3.9°C 53% 10.6 mph N17.1 kmh N 15.2 mph24.5 kmh 30.06 in1017.9 mb 0.00 in0.0 mm 0.00 in0.0 mm 0.00 in0.0 mm
11:30 AM 41.1°F5.1°C 26.1°F-3.3°C 55% 5.4 mph NNE8.7 kmh NNE 8.3 mph13.4 kmh 30.07 in1018.3 mb 0.00 in0.0 mm 0.00 in0.0 mm 0.00 in0.0 mm
11:35 AM 41.3°F5.2°C 26.2°F-3.2°C 55% 8.2 mph N13.2 kmh N 18.3 mph29.5 kmh 30.06 in1017.9 mb 0.00 in0.0 mm 0.00 in0.0 mm 0.00 in0.0 mm
11:40 AM 41.1°F5.1°C 25.4°F-3.7°C 53% 8.0 mph 12.9 kmh 13.0 mph20.9 kmh 30.07 in1018.3 mb 0.00 in0.0 mm 0.00 in0.0 mm 0.00 in0.0 mm
11:45 AM 40.4°F4.7°C 24.8°F-4.0°C 53% 9.8 mph N15.8 kmh N 19.7 mph31.7 kmh 30.07 in1018.3 mb 0.00 in0.0 mm 0.00 in0.0 mm 0.00 in0.0 mm
11:50 AM 39.9°F4.4°C 24.2°F-4.3°C 53% 8.4 mph NNE13.5 kmh NNE 13.0 mph20.9 kmh 30.08 in1018.6 mb 0.00 in0.0 mm 0.00 in0.0 mm 0.00 in0.0 mm
11:55 AM 39.6°F4.2°C 23.9°F-4.5°C 53% 8.2 mph NNE13.2 kmh NNE 13.0 mph20.9 kmh 30.08 in1018.6 mb 0.00 in0.0 mm 0.00 in0.0 mm 0.00 in0.0 mm
12:00 PM 39.2°F4.0°C 23.5°F-4.7°C 53% 8.1 mph N13.0 kmh N 13.6 mph21.9 kmh 30.08 in1018.6 mb 0.00 in0.0 mm 0.00 in0.0 mm 0.00 in0.0 mm
12:05 PM 39.0°F3.9°C 23.4°F-4.8°C 53% 5.4 mph NW8.7 kmh NW 7.6 mph12.2 kmh 30.08 in1018.6 mb 0.00 in0.0 mm 0.00 in0.0 mm 0.00 in0.0 mm
12:10 PM 38.8°F3.8°C 22.9°F-5.1°C 52% 6.4 mph N10.3 kmh N 13.0 mph20.9 kmh 30.09 in1019.0 mb 0.00 in0.0 mm 0.00 in0.0 mm 0.00 in0.0 mm
12:15 PM 38.5°F3.6°C 22.5°F-5.3°C 52% 10.0 mph N16.1 kmh N 17.4 mph28.0 kmh 30.09 in1019.0 mb 0.00 in0.0 mm 0.00 in0.0 mm 0.00 in0.0 mm
12:20 PM 38.2°F3.4°C 22.5°F-5.3°C 53% 7.2 mph N11.6 kmh N 11.4 mph18.3 kmh 30.09 in1019.0 mb 0.00 in0.0 mm 0.00 in0.0 mm 0.00 in0.0 mm
12:25 PM 38.1°F3.4°C 22.8°F-5.1°C 54% 9.5 mph N15.3 kmh N 18.3 mph29.5 kmh 30.09 in1019.0 mb 0.00 in0.0 mm 0.00 in0.0 mm 0.00 in0.0 mm
12:30 PM 38.9°F3.8°C 24.7°F-4.1°C 56% 11.4 mph NNW18.3 kmh NNW 17.4 mph28.0 kmh 30.09 in1019.0 mb 0.00 in0.0 mm 0.00 in0.0 mm 0.00 in0.0 mm
12:35 PM 40.6°F4.8°C 25.6°F-3.6°C 55% 10.7 mph NNW17.2 kmh NNW 17.4 mph28.0 kmh 30.09 in1019.0 mb 0.00 in0.0 mm 0.00 in0.0 mm 0.00 in0.0 mm
12:40 PM 40.9°F4.9°C 24.9°F-3.9°C 52% 8.3 mph N13.4 kmh N 15.9 mph25.6 kmh 30.09 in1019.0 mb 0.00 in0.0 mm 0.00 in0.0 mm 0.00 in0.0 mm
12:45 PM 40.6°F4.8°C 23.9°F-4.5°C 51% 7.8 mph N12.6 kmh N 18.3 mph29.5 kmh 30.09 in1019.0 mb 0.00 in0.0 mm 0.00 in0.0 mm 0.00 in0.0 mm
12:50 PM 40.3°F4.6°C 23.3°F-4.8°C 50% 9.6 mph NNE15.4 kmh NNE 19.7 mph31.7 kmh 30.09 in1019.0 mb 0.00 in0.0 mm 0.00 in0.0 mm 0.00 in0.0 mm
12:55 PM 39.9°F4.4°C 22.8°F-5.1°C 50% 7.5 mph N12.1 kmh N 17.4 mph28.0 kmh 30.09 in1019.0 mb 0.00 in0.0 mm 0.00 in0.0 mm 0.00 in0.0 mm
01:00 PM 39.6°F4.2°C 22.2°F-5.4°C 49% 8.7 mph N14.0 kmh N 13.0 mph20.9 kmh 30.10 in1019.3 mb 0.00 in0.0 mm 0.00 in0.0 mm 0.00 in0.0 mm
01:05 PM 39.3°F4.1°C 22.3°F-5.4°C 50% 8.8 mph NNW14.2 kmh NNW 13.0 mph20.9 kmh 30.10 in1019.3 mb 0.00 in0.0 mm 0.00 in0.0 mm 0.00 in0.0 mm
01:10 PM 39.2°F4.0°C 22.6°F-5.2°C 51% 6.8 mph NNW10.9 kmh NNW 13.0 mph20.9 kmh 30.10 in1019.3 mb 0.00 in0.0 mm 0.00 in0.0 mm 0.00 in0.0 mm
01:15 PM 39.0°F3.9°C 22.2°F-5.4°C 50% 8.4 mph N13.5 kmh N 15.2 mph24.5 kmh 30.10 in1019.3 mb 0.00 in0.0 mm 0.00 in0.0 mm 0.00 in0.0 mm
01:20 PM 39.1°F3.9°C 22.9°F-5.1°C 52% 5.8 mph N9.3 kmh N 8.3 mph13.4 kmh 30.10 in1019.3 mb 0.00 in0.0 mm 0.00 in0.0 mm 0.00 in0.0 mm
01:25 PM 39.4°F4.1°C 23.4°F-4.8°C 52% 9.1 mph NNW14.6 kmh NNW 16.8 mph27.0 kmh 30.10 in1019.3 mb 0.00 in0.0 mm 0.00 in0.0 mm 0.00 in0.0 mm
01:30 PM 39.3°F4.1°C 22.8°F-5.1°C 51% 7.7 mph NNE12.4 kmh NNE 12.1 mph19.5 kmh 30.10 in1019.3 mb 0.00 in0.0 mm 0.00 in0.0 mm 0.00 in0.0 mm
01:35 PM 39.0°F3.9°C 22.4°F-5.3°C 51% 7.6 mph N12.2 kmh N 11.4 mph18.3 kmh 30.10 in1019.3 mb 0.00 in0.0 mm 0.00 in0.0 mm 0.00 in0.0 mm
01:40 PM 38.9°F3.8°C 22.3°F-5.4°C 51% 8.5 mph N13.7 kmh N 12.1 mph19.5 kmh 30.10 in1019.3 mb 0.00 in0.0 mm 0.00 in0.0 mm 0.00 in0.0 mm
01:45 PM 39.0°F3.9°C 22.4°F-5.3°C 51% 5.8 mph NE9.3 kmh NE 9.8 mph15.8 kmh 30.10 in1019.3 mb 0.00 in0.0 mm 0.00 in0.0 mm 0.00 in0.0 mm
01:50 PM 39.0°F3.9°C 22.4°F-5.3°C 51% 5.8 mph NNW9.3 kmh NNW 13.0 mph20.9 kmh 30.10 in1019.3 mb 0.00 in0.0 mm 0.00 in0.0 mm 0.00 in0.0 mm
01:55 PM 38.9°F3.8°C 22.3°F-5.4°C 51% 7.8 mph NNE12.6 kmh NNE 13.0 mph20.9 kmh 30.10 in1019.3 mb 0.00 in0.0 mm 0.00 in0.0 mm 0.00 in0.0 mm
02:00 PM 38.5°F3.6°C 22.0°F-5.6°C 51% 6.9 mph NNE11.1 kmh NNE 11.4 mph18.3 kmh 30.11 in1019.6 mb 0.00 in0.0 mm 0.00 in0.0 mm 0.00 in0.0 mm
02:05 PM 38.3°F3.5°C 21.8°F-5.7°C 51% 3.1 mph 5.0 kmh 3.8 mph6.1 kmh 30.11 in1019.6 mb 0.00 in0.0 mm 0.00 in0.0 mm 0.00 in0.0 mm
02:10 PM 38.0°F3.3°C 21.5°F-5.8°C 51% 3.8 mph N6.1 kmh N 6.9 mph11.1 kmh 30.11 in1019.6 mb 0.00 in0.0 mm 0.00 in0.0 mm 0.00 in0.0 mm
02:15 PM 37.6°F3.1°C 21.8°F-5.7°C 52% 4.5 mph N7.2 kmh N 8.3 mph13.4 kmh 30.12 in1020.0 mb 0.00 in0.0 mm 0.00 in0.0 mm 0.00 in0.0 mm
02:20 PM 37.7°F3.2°C 22.1°F-5.5°C 53% 6.1 mph NNE9.8 kmh NNE 9.8 mph15.8 kmh 30.12 in1020.0 mb 0.00 in0.0 mm 0.00 in0.0 mm 0.00 in0.0 mm
02:25 PM 37.7°F3.2°C 22.1°F-5.5°C 53% 6.0 mph 9.7 kmh 9.8 mph15.8 kmh 30.12 in1020.0 mb 0.00 in0.0 mm 0.00 in0.0 mm 0.00 in0.0 mm
02:30 PM 37.6°F3.1°C 22.0°F-5.6°C 53% 5.2 mph NE8.4 kmh NE 8.3 mph13.4 kmh 30.12 in1020.0 mb 0.00 in0.0 mm 0.00 in0.0 mm 0.00 in0.0 mm
02:35 PM 37.4°F3.0°C 21.8°F-5.7°C 53% 3.8 mph NNE6.1 kmh NNE 5.4 mph8.7 kmh 30.13 in1020.3 mb 0.00 in0.0 mm 0.00 in0.0 mm 0.00 in0.0 mm
02:40 PM 37.2°F2.9°C 21.6°F-5.8°C 53% 3.0 mph N4.8 kmh N 6.0 mph9.7 kmh 30.13 in1020.3 mb 0.00 in0.0 mm 0.00 in0.0 mm 0.00 in0.0 mm
02:45 PM 36.9°F2.7°C 21.4°F-5.9°C 53% 4.1 mph NNE6.6 kmh NNE 7.6 mph12.2 kmh 30.13 in1020.3 mb 0.00 in0.0 mm 0.00 in0.0 mm 0.00 in0.0 mm
02:50 PM 36.6°F2.6°C 21.1°F-6.1°C 53% 5.1 mph NNE8.2 kmh NNE 8.3 mph13.4 kmh 30.13 in1020.3 mb 0.00 in0.0 mm 0.00 in0.0 mm 0.00 in0.0 mm
02:55 PM 36.5°F2.5°C 21.1°F-6.1°C 53% 3.3 mph N5.3 kmh N 6.9 mph11.1 kmh 30.13 in1020.3 mb 0.00 in0.0 mm 0.00 in0.0 mm 0.00 in0.0 mm
03:00 PM 36.5°F2.5°C 21.5°F-5.8°C 54% 3.3 mph N5.3 kmh N 7.6 mph12.2 kmh 30.14 in1020.7 mb 0.00 in0.0 mm 0.00 in0.0 mm 0.00 in0.0 mm
03:05 PM 36.6°F2.6°C 21.6°F-5.8°C 54% 3.6 mph NNE5.8 kmh NNE 8.3 mph13.4 kmh 30.14 in1020.7 mb 0.00 in0.0 mm 0.00 in0.0 mm 0.00 in0.0 mm
03:10 PM 36.7°F2.6°C 21.4°F-5.9°C 54% 5.8 mph 9.3 kmh 9.8 mph15.8 kmh 30.14 in1020.7 mb 0.00 in0.0 mm 0.00 in0.0 mm 0.00 in0.0 mm
03:15 PM 36.7°F2.6°C 21.3°F-5.9°C 53% 6.6 mph NNE10.6 kmh NNE 13.0 mph20.9 kmh 30.14 in1020.7 mb 0.00 in0.0 mm 0.00 in0.0 mm 0.00 in0.0 mm
03:20 PM 36.7°F2.6°C 21.2°F-6.0°C 53% 6.8 mph N10.9 kmh N 10.7 mph17.2 kmh 30.14 in1020.7 mb 0.00 in0.0 mm 0.00 in0.0 mm 0.00 in0.0 mm
03:25 PM 36.5°F2.5°C 21.0°F-6.1°C 53% 4.9 mph N7.9 kmh N 9.2 mph14.8 kmh 30.14 in1020.7 mb 0.00 in0.0 mm 0.00 in0.0 mm 0.00 in0.0 mm
03:30 PM 36.5°F2.5°C 21.1°F-6.1°C 53% 4.9 mph N7.9 kmh N 6.9 mph11.1 kmh 30.14 in1020.7 mb 0.00 in0.0 mm 0.00 in0.0 mm 0.00 in0.0 mm
03:35 PM 36.4°F2.4°C 21.4°F-5.9°C 54% 3.5 mph NNE5.6 kmh NNE 6.0 mph9.7 kmh 30.14 in1020.7 mb 0.00 in0.0 mm 0.00 in0.0 mm 0.00 in0.0 mm
03:40 PM 36.3°F2.4°C 21.3°F-5.9°C 54% 3.2 mph N5.1 kmh N 4.5 mph7.2 kmh 30.15 in1021.0 mb 0.00 in0.0 mm 0.00 in0.0 mm 0.00 in0.0 mm
03:45 PM 36.3°F2.4°C 21.7°F-5.7°C 55% 3.2 mph NNW5.1 kmh NNW 7.6 mph12.2 kmh 30.15 in1021.0 mb 0.00 in0.0 mm 0.00 in0.0 mm 0.00 in0.0 mm
03:50 PM 36.3°F2.4°C 21.7°F-5.7°C 55% 3.5 mph N5.6 kmh N 7.6 mph12.2 kmh 30.15 in1021.0 mb 0.00 in0.0 mm 0.00 in0.0 mm 0.00 in0.0 mm
03:55 PM 36.2°F2.3°C 21.6°F-5.8°C 55% 5.0 mph N8.0 kmh N 9.2 mph14.8 kmh 30.15 in1021.0 mb 0.00 in0.0 mm 0.00 in0.0 mm 0.00 in0.0 mm
04:00 PM 36.1°F2.3°C 21.5°F-5.8°C 55% 6.6 mph N10.6 kmh N 9.2 mph14.8 kmh 30.16 in1021.3 mb 0.00 in0.0 mm 0.00 in0.0 mm 0.00 in0.0 mm
04:05 PM 36.0°F2.2°C 21.4°F-5.9°C 55% 3.8 mph 6.1 kmh 4.5 mph7.2 kmh 30.16 in1021.3 mb 0.00 in0.0 mm 0.00 in0.0 mm 0.00 in0.0 mm
04:10 PM 36.0°F2.2°C 21.6°F-5.8°C 56% 4.6 mph NNE7.4 kmh NNE 9.2 mph14.8 kmh 30.16 in1021.3 mb 0.00 in0.0 mm 0.00 in0.0 mm 0.00 in0.0 mm
04:15 PM 35.9°F2.2°C 21.7°F-5.7°C 56% 3.4 mph N5.5 kmh N 6.0 mph9.7 kmh 30.16 in1021.3 mb 0.00 in0.0 mm 0.00 in0.0 mm 0.00 in0.0 mm
04:20 PM 35.7°F2.1°C 21.1°F-6.1°C 55% 3.9 mph NE6.3 kmh NE 6.9 mph11.1 kmh 30.16 in1021.3 mb 0.00 in0.0 mm 0.00 in0.0 mm 0.00 in0.0 mm
04:25 PM 35.4°F1.9°C 20.9°F-6.2°C 55% 3.5 mph NNE5.6 kmh NNE 5.4 mph8.7 kmh 30.16 in1021.3 mb 0.00 in0.0 mm 0.00 in0.0 mm 0.00 in0.0 mm
04:30 PM 35.1°F1.7°C 20.6°F-6.3°C 55% 6.1 mph N9.8 kmh N 10.7 mph17.2 kmh 30.17 in1021.7 mb 0.00 in0.0 mm 0.00 in0.0 mm 0.00 in0.0 mm
04:35 PM 34.9°F1.6°C 20.4°F-6.4°C 55% 4.4 mph N7.1 kmh N 9.2 mph14.8 kmh 30.17 in1021.7 mb 0.00 in0.0 mm 0.00 in0.0 mm 0.00 in0.0 mm
04:40 PM 34.7°F1.5°C 20.2°F-6.6°C 55% 2.4 mph NNE3.9 kmh NNE 4.5 mph7.2 kmh 30.17 in1021.7 mb 0.00 in0.0 mm 0.00 in0.0 mm 0.00 in0.0 mm
04:45 PM 34.4°F1.3°C 20.0°F-6.7°C 55% 4.1 mph NNE6.6 kmh NNE 6.9 mph11.1 kmh 30.17 in1021.7 mb 0.00 in0.0 mm 0.00 in0.0 mm 0.00 in0.0 mm
04:50 PM 34.2°F1.2°C 19.7°F-6.8°C 55% 2.7 mph N4.3 kmh N 3.8 mph6.1 kmh 30.17 in1021.7 mb 0.00 in0.0 mm 0.00 in0.0 mm 0.00 in0.0 mm
04:55 PM 33.9°F1.1°C 19.5°F-6.9°C 55% 3.2 mph N5.1 kmh N 5.4 mph8.7 kmh 30.17 in1021.7 mb 0.00 in0.0 mm 0.00 in0.0 mm 0.00 in0.0 mm
05:00 PM 33.8°F1.0°C 19.3°F-7.1°C 55% 3.8 mph N6.1 kmh N 8.3 mph13.4 kmh 30.17 in1021.7 mb 0.00 in0.0 mm 0.00 in0.0 mm 0.00 in0.0 mm
05:05 PM 33.6°F0.9°C 19.3°F-7.1°C 55% 3.7 mph NNE6.0 kmh NNE 6.9 mph11.1 kmh 30.18 in1022.0 mb 0.00 in0.0 mm 0.00 in0.0 mm 0.00 in0.0 mm
05:10 PM 33.5°F0.8°C 19.5°F-6.9°C 56% 3.2 mph N5.1 kmh N 5.4 mph8.7 kmh 30.18 in1022.0 mb 0.00 in0.0 mm 0.00 in0.0 mm 0.00 in0.0 mm
05:15 PM 33.4°F0.8°C 19.4°F-7.0°C 56% 2.8 mph 4.5 kmh 4.5 mph7.2 kmh 30.18 in1022.0 mb 0.00 in0.0 mm 0.00 in0.0 mm 0.00 in0.0 mm
05:20 PM 33.2°F0.7°C 19.2°F-7.1°C 56% 1.2 mph NNW1.9 kmh NNW 2.2 mph3.5 kmh 30.18 in1022.0 mb 0.00 in0.0 mm 0.00 in0.0 mm 0.00 in0.0 mm
05:25 PM 33.1°F0.6°C 19.1°F-7.2°C 56% 1.6 mph W2.6 kmh W 2.2 mph3.5 kmh 30.18 in1022.0 mb 0.00 in0.0 mm 0.00 in0.0 mm 0.00 in0.0 mm
05:30 PM 32.9°F0.5°C 18.9°F-7.3°C 56% 1.2 mph NW1.9 kmh NW 2.2 mph3.5 kmh 30.18 in1022.0 mb 0.00 in0.0 mm 0.00 in0.0 mm 0.00 in0.0 mm
05:35 PM 32.7°F0.4°C 18.8°F-7.3°C 56% 0.3 mph WNW0.5 kmh WNW 1.6 mph2.6 kmh 30.18 in1022.0 mb 0.00 in0.0 mm 0.00 in0.0 mm 0.00 in0.0 mm
05:40 PM 32.5°F0.3°C 19.0°F-7.2°C 57% 0.4 mph SW0.6 kmh SW 1.6 mph2.6 kmh 30.19 in1022.4 mb 0.00 in0.0 mm 0.00 in0.0 mm 0.00 in0.0 mm
05:45 PM 32.3°F0.2°C 18.9°F-7.3°C 57% 1.1 mph NW1.8 kmh NW 3.8 mph6.1 kmh 30.19 in1022.4 mb 0.00 in0.0 mm 0.00 in0.0 mm 0.00 in0.0 mm
05:50 PM 32.1°F0.1°C 19.0°F-7.2°C 58% 2.5 mph WNW4.0 kmh WNW 4.5 mph7.2 kmh 30.19 in1022.4 mb 0.00 in0.0 mm 0.00 in0.0 mm 0.00 in0.0 mm
05:55 PM 31.8°F-0.1°C 19.0°F-7.2°C 59% 1.1 mph WNW1.8 kmh WNW 2.2 mph3.5 kmh 30.20 in1022.7 mb 0.00 in0.0 mm 0.00 in0.0 mm 0.00 in0.0 mm
06:00 PM 31.6°F-0.2°C 19.1°F-7.2°C 59% 2.9 mph N4.7 kmh N 4.5 mph7.2 kmh 30.20 in1022.7 mb 0.00 in0.0 mm 0.00 in0.0 mm 0.00 in0.0 mm
06:05 PM 31.3°F-0.4°C 19.0°F-7.2°C 60% 2.2 mph NE3.5 kmh NE 3.1 mph5.0 kmh 30.20 in1022.7 mb 0.00 in0.0 mm 0.00 in0.0 mm 0.00 in0.0 mm
06:10 PM 31.0°F-0.6°C 18.9°F-7.3°C 60% 3.0 mph NE4.8 kmh NE 5.4 mph8.7 kmh 30.20 in1022.7 mb 0.00 in0.0 mm 0.00 in0.0 mm 0.00 in0.0 mm
06:15 PM 30.6°F-0.8°C 18.8°F-7.3°C 61% 3.9 mph NE6.3 kmh NE 5.4 mph8.7 kmh 30.20 in1022.7 mb 0.00 in0.0 mm 0.00 in0.0 mm 0.00 in0.0 mm
06:20 PM 30.3°F-0.9°C 18.9°F-7.3°C 62% 3.3 mph NNE5.3 kmh NNE 5.4 mph8.7 kmh 30.20 in1022.7 mb 0.00 in0.0 mm 0.00 in0.0 mm 0.00 in0.0 mm
06:25 PM 30.2°F-1.0°C 18.8°F-7.3°C 62% 1.3 mph NW2.1 kmh NW 2.2 mph3.5 kmh 30.20 in1022.7 mb 0.00 in0.0 mm 0.00 in0.0 mm 0.00 in0.0 mm
06:30 PM 30.2°F-1.0°C 19.1°F-7.2°C 63% 1.6 mph NW2.6 kmh NW 3.1 mph5.0 kmh 30.20 in1022.7 mb 0.00 in0.0 mm 0.00 in0.0 mm 0.00 in0.0 mm
06:35 PM 30.0°F-1.1°C 18.9°F-7.3°C 63% 0.2 mph SW0.3 kmh SW 1.6 mph2.6 kmh 30.21 in1023.0 mb 0.00 in0.0 mm 0.00 in0.0 mm 0.00 in0.0 mm
06:40 PM 29.8°F-1.2°C 18.8°F-7.3°C 63% 0.1 mph W0.2 kmh W 0.7 mph1.1 kmh 30.21 in1023.0 mb 0.00 in0.0 mm 0.00 in0.0 mm 0.00 in0.0 mm
06:45 PM 29.5°F-1.4°C 18.2°F-7.7°C 62% 0.6 mph NE1.0 kmh NE 2.2 mph3.5 kmh 30.21 in1023.0 mb 0.00 in0.0 mm 0.00 in0.0 mm 0.00 in0.0 mm
06:50 PM 29.1°F-1.6°C 17.8°F-7.9°C 62% 0.8 mph N1.3 kmh N 2.2 mph3.5 kmh 30.21 in1023.0 mb 0.00 in0.0 mm 0.00 in0.0 mm 0.00 in0.0 mm
06:55 PM 28.8°F-1.8°C 17.9°F-7.8°C 63% 0.1 mph E0.2 kmh E 0.7 mph1.1 kmh 30.21 in1023.0 mb 0.00 in0.0 mm 0.00 in0.0 mm 0.00 in0.0 mm
07:00 PM 28.5°F-1.9°C 17.6°F-8.0°C 63% Calm Calm 0.7 mph1.1 kmh 30.22 in1023.4 mb 0.00 in0.0 mm 0.00 in0.0 mm 0.00 in0.0 mm
07:05 PM 28.3°F-2.1°C 17.4°F-8.1°C 63% Calm Calm 0.7 mph1.1 kmh 30.22 in1023.4 mb 0.00 in0.0 mm 0.00 in0.0 mm 0.00 in0.0 mm
07:10 PM 28.0°F-2.2°C 17.1°F-8.3°C 63% 0.5 mph NW0.8 kmh NW 2.2 mph3.5 kmh 30.22 in1023.4 mb 0.00 in0.0 mm 0.00 in0.0 mm 0.00 in0.0 mm
07:15 PM 27.9°F-2.3°C 17.1°F-8.3°C 63% 1.7 mph ENE2.7 kmh ENE 3.8 mph6.1 kmh 30.23 in1023.7 mb 0.00 in0.0 mm 0.00 in0.0 mm 0.00 in0.0 mm
07:20 PM 27.8°F-2.3°C 17.4°F-8.1°C 64% 1.3 mph NE2.1 kmh NE 2.2 mph3.5 kmh 30.23 in1023.7 mb 0.00 in0.0 mm 0.00 in0.0 mm 0.00 in0.0 mm
07:25 PM 27.7°F-2.4°C 17.7°F-7.9°C 66% 1.1 mph N1.8 kmh N 2.2 mph3.5 kmh 30.23 in1023.7 mb 0.00 in0.0 mm 0.00 in0.0 mm 0.00 in0.0 mm
07:30 PM 27.7°F-2.4°C 17.9°F-7.8°C 66% Calm Calm 0.7 mph1.1 kmh 30.23 in1023.7 mb 0.00 in0.0 mm 0.00 in0.0 mm 0.00 in0.0 mm
07:35 PM 27.5°F-2.5°C 18.0°F-7.8°C 67% 0.4 mph NNE0.6 kmh NNE 2.2 mph3.5 kmh 30.23 in1023.7 mb 0.00 in0.0 mm 0.00 in0.0 mm 0.00 in0.0 mm
07:40 PM 27.4°F-2.6°C 18.0°F-7.8°C 67% 0.8 mph W1.3 kmh W 2.2 mph3.5 kmh 30.23 in1023.7 mb 0.00 in0.0 mm 0.00 in0.0 mm 0.00 in0.0 mm
07:45 PM 27.3°F-2.6°C 17.8°F-7.9°C 67% 0.4 mph NW0.6 kmh NW 1.6 mph2.6 kmh 30.23 in1023.7 mb 0.00 in0.0 mm 0.00 in0.0 mm 0.00 in0.0 mm
07:50 PM 27.1°F-2.7°C 17.7°F-7.9°C 67% 0.4 mph 0.6 kmh 3.1 mph5.0 kmh 30.23 in1023.7 mb 0.00 in0.0 mm 0.00 in0.0 mm 0.00 in0.0 mm
07:55 PM 27.1°F-2.7°C 17.8°F-7.9°C 67% 1.6 mph NNE2.6 kmh NNE 3.1 mph5.0 kmh 30.23 in1023.7 mb 0.00 in0.0 mm 0.00 in0.0 mm 0.00 in0.0 mm
08:00 PM 27.1°F-2.7°C 18.1°F-7.7°C 68% 1.6 mph NE2.6 kmh NE 2.2 mph3.5 kmh 30.23 in1023.7 mb 0.00 in0.0 mm 0.00 in0.0 mm 0.00 in0.0 mm
08:05 PM 27.1°F-2.7°C 18.3°F-7.6°C 69% 1.6 mph 2.6 kmh 2.2 mph3.5 kmh 30.23 in1023.7 mb 0.00 in0.0 mm 0.00 in0.0 mm 0.00 in0.0 mm
08:10 PM 27.0°F-2.8°C 18.4°F-7.6°C 70% 2.9 mph NE4.7 kmh NE 3.8 mph6.1 kmh 30.23 in1023.7 mb 0.00 in0.0 mm 0.00 in0.0 mm 0.00 in0.0 mm
08:15 PM 26.8°F-2.9°C 18.3°F-7.6°C 70% 3.1 mph NE5.0 kmh NE 4.5 mph7.2 kmh 30.23 in1023.7 mb 0.00 in0.0 mm 0.00 in0.0 mm 0.00 in0.0 mm
08:20 PM 26.6°F-3.0°C 18.3°F-7.6°C 70% 3.5 mph N5.6 kmh N 4.5 mph7.2 kmh 30.23 in1023.7 mb 0.00 in0.0 mm 0.00 in0.0 mm 0.00 in0.0 mm
08:25 PM 26.6°F-3.0°C 18.5°F-7.5°C 71% 2.5 mph NNE4.0 kmh NNE 3.8 mph6.1 kmh 30.24 in1024.0 mb 0.00 in0.0 mm 0.00 in0.0 mm 0.00 in0.0 mm
08:30 PM 26.6°F-3.0°C 18.5°F-7.5°C 71% 2.4 mph NE3.9 kmh NE 3.1 mph5.0 kmh 30.24 in1024.0 mb 0.00 in0.0 mm 0.00 in0.0 mm 0.00 in0.0 mm
08:35 PM 26.3°F-3.2°C 18.2°F-7.7°C 71% 1.2 mph ENE1.9 kmh ENE 2.2 mph3.5 kmh 30.24 in1024.0 mb 0.00 in0.0 mm 0.00 in0.0 mm 0.00 in0.0 mm
08:40 PM 26.2°F-3.2°C 18.1°F-7.7°C 71% 0.7 mph NE1.1 kmh NE 2.2 mph3.5 kmh 30.24 in1024.0 mb 0.00 in0.0 mm 0.00 in0.0 mm 0.00 in0.0 mm
08:45 PM 26.1°F-3.3°C 18.0°F-7.8°C 71% 1.8 mph NE2.9 kmh NE 3.1 mph5.0 kmh 30.25 in1024.4 mb 0.00 in0.0 mm 0.00 in0.0 mm 0.00 in0.0 mm
08:50 PM 25.9°F-3.4°C 18.1°F-7.7°C 72% 1.8 mph NE2.9 kmh NE 3.1 mph5.0 kmh 30.24 in1024.0 mb 0.00 in0.0 mm 0.00 in0.0 mm 0.00 in0.0 mm
08:55 PM 26.0°F-3.3°C 18.2°F-7.7°C 72% 2.2 mph NE3.5 kmh NE 3.1 mph5.0 kmh 30.25 in1024.4 mb 0.00 in0.0 mm 0.00 in0.0 mm 0.00 in0.0 mm
09:00 PM 26.1°F-3.3°C 18.3°F-7.6°C 72% 2.2 mph NE3.5 kmh NE 3.8 mph6.1 kmh 30.25 in1024.4 mb 0.00 in0.0 mm 0.00 in0.0 mm 0.00 in0.0 mm
09:05 PM 26.1°F-3.3°C 18.5°F-7.5°C 73% 1.9 mph NE3.1 kmh NE 3.1 mph5.0 kmh 30.25 in1024.4 mb 0.00 in0.0 mm 0.00 in0.0 mm 0.00 in0.0 mm
09:10 PM 26.1°F-3.3°C 18.6°F-7.4°C 73% 1.5 mph NE2.4 kmh NE 3.1 mph5.0 kmh 30.25 in1024.4 mb 0.00 in0.0 mm 0.00 in0.0 mm 0.00 in0.0 mm
09:15 PM 26.1°F-3.3°C 18.6°F-7.4°C 73% 1.6 mph NE2.6 kmh NE 2.2 mph3.5 kmh 30.25 in1024.4 mb 0.00 in0.0 mm 0.00 in0.0 mm 0.00 in0.0 mm
09:20 PM 26.0°F-3.3°C 18.5°F-7.5°C 73% 1.5 mph NE2.4 kmh NE 2.2 mph3.5 kmh 30.25 in1024.4 mb 0.00 in0.0 mm 0.00 in0.0 mm 0.00 in0.0 mm
09:25 PM 25.9°F-3.4°C 18.5°F-7.5°C 73% 2.6 mph NE4.2 kmh NE 3.8 mph6.1 kmh 30.25 in1024.4 mb 0.00 in0.0 mm 0.00 in0.0 mm 0.00 in0.0 mm
09:30 PM 25.7°F-3.5°C 18.6°F-7.4°C 74% 2.6 mph NE4.2 kmh NE 3.8 mph6.1 kmh 30.25 in1024.4 mb 0.00 in0.0 mm 0.00 in0.0 mm 0.00 in0.0 mm
09:35 PM 25.7°F-3.5°C 18.6°F-7.4°C 74% 2.6 mph NE4.2 kmh NE 4.5 mph7.2 kmh 30.25 in1024.4 mb 0.00 in0.0 mm 0.00 in0.0 mm 0.00 in0.0 mm
09:40 PM 25.9°F-3.4°C 18.8°F-7.3°C 74% 2.2 mph N3.5 kmh N 3.8 mph6.1 kmh 30.25 in1024.4 mb 0.00 in0.0 mm 0.00 in0.0 mm 0.00 in0.0 mm
09:45 PM 26.0°F-3.3°C 19.1°F-7.2°C 75% 2.2 mph N3.5 kmh N 3.8 mph6.1 kmh 30.25 in1024.4 mb 0.00 in0.0 mm 0.00 in0.0 mm 0.00 in0.0 mm
09:50 PM 26.1°F-3.3°C 19.2°F-7.1°C 75% 2.2 mph N3.5 kmh N 3.8 mph6.1 kmh 30.25 in1024.4 mb 0.00 in0.0 mm 0.00 in0.0 mm 0.00 in0.0 mm
09:55 PM 26.1°F-3.3°C 19.2°F-7.1°C 75% 2.5 mph NE4.0 kmh NE 3.8 mph6.1 kmh 30.25 in1024.4 mb 0.00 in0.0 mm 0.00 in0.0 mm 0.00 in0.0 mm
10:00 PM 25.9°F-3.4°C 19.1°F-7.2°C 75% 1.8 mph NE2.9 kmh NE 3.1 mph5.0 kmh 30.25 in1024.4 mb 0.00 in0.0 mm 0.00 in0.0 mm 0.00 in0.0 mm
10:05 PM 25.9°F-3.4°C 19.4°F-7.0°C 76% 0.7 mph 1.1 kmh 1.6 mph2.6 kmh 30.25 in1024.4 mb 0.00 in0.0 mm 0.00 in0.0 mm 0.00 in0.0 mm
10:10 PM 25.7°F-3.5°C 19.1°F-7.2°C 76% 2.5 mph NE4.0 kmh NE 3.8 mph6.1 kmh 30.25 in1024.4 mb 0.00 in0.0 mm 0.00 in0.0 mm 0.00 in0.0 mm
10:15 PM 25.5°F-3.6°C 18.7°F-7.4°C 75% 2.6 mph NE4.2 kmh NE 3.8 mph6.1 kmh 30.25 in1024.4 mb 0.00 in0.0 mm 0.00 in0.0 mm 0.00 in0.0 mm
10:20 PM 25.3°F-3.7°C 18.5°F-7.5°C 75% 1.1 mph N1.8 kmh N 2.2 mph3.5 kmh 30.26 in1024.7 mb 0.00 in0.0 mm 0.00 in0.0 mm 0.00 in0.0 mm
10:25 PM 25.3°F-3.7°C 18.5°F-7.5°C 75% 1.3 mph NE2.1 kmh NE 2.2 mph3.5 kmh 30.26 in1024.7 mb 0.00 in0.0 mm 0.00 in0.0 mm 0.00 in0.0 mm
10:30 PM 25.3°F-3.7°C 18.5°F-7.5°C 75% 0.7 mph NE1.1 kmh NE 2.2 mph3.5 kmh 30.26 in1024.7 mb 0.00 in0.0 mm 0.00 in0.0 mm 0.00 in0.0 mm
10:35 PM 25.2°F-3.8°C 18.4°F-7.6°C 75% 0.5 mph NE0.8 kmh NE 1.6 mph2.6 kmh 30.26 in1024.7 mb 0.00 in0.0 mm 0.00 in0.0 mm 0.00 in0.0 mm
10:40 PM 25.1°F-3.8°C 18.3°F-7.6°C 75% 0.5 mph NE0.8 kmh NE 1.6 mph2.6 kmh 30.26 in1024.7 mb 0.00 in0.0 mm 0.00 in0.0 mm 0.00 in0.0 mm
10:45 PM 25.0°F-3.9°C 18.2°F-7.7°C 75% 0.3 mph NW0.5 kmh NW 1.6 mph2.6 kmh 30.27 in1025.1 mb 0.00 in0.0 mm 0.00 in0.0 mm 0.00 in0.0 mm
10:50 PM 24.8°F-4.0°C 18.0°F-7.8°C 75% 0.8 mph N1.3 kmh N 1.6 mph2.6 kmh 30.27 in1025.1 mb 0.00 in0.0 mm 0.00 in0.0 mm 0.00 in0.0 mm
10:55 PM 24.8°F-4.0°C 18.0°F-7.8°C 75% 2.2 mph NE3.5 kmh NE 3.8 mph6.1 kmh 30.27 in1025.1 mb 0.00 in0.0 mm 0.00 in0.0 mm 0.00 in0.0 mm
11:00 PM 25.0°F-3.9°C 18.2°F-7.7°C 75% 2.5 mph NE4.0 kmh NE 3.8 mph6.1 kmh 30.27 in1025.1 mb 0.00 in0.0 mm 0.00 in0.0 mm 0.00 in0.0 mm
11:05 PM 25.2°F-3.8°C 18.4°F-7.6°C 75% 1.8 mph NE2.9 kmh NE 3.1 mph5.0 kmh 30.27 in1025.1 mb 0.00 in0.0 mm 0.00 in0.0 mm 0.00 in0.0 mm
11:10 PM 25.3°F-3.7°C 18.7°F-7.4°C 75% 1.3 mph NE2.1 kmh NE 2.2 mph3.5 kmh 30.27 in1025.1 mb 0.00 in0.0 mm 0.00 in0.0 mm 0.00 in0.0 mm
11:15 PM 25.3°F-3.7°C 18.9°F-7.3°C 76% 0.1 mph NW0.2 kmh NW 0.7 mph1.1 kmh 30.27 in1025.1 mb 0.00 in0.0 mm 0.00 in0.0 mm 0.00 in0.0 mm
11:20 PM 25.3°F-3.7°C 18.8°F-7.3°C 76% Calm Calm 0.7 mph1.1 kmh 30.27 in1025.1 mb 0.00 in0.0 mm 0.00 in0.0 mm 0.00 in0.0 mm
11:25 PM 25.1°F-3.8°C 18.6°F-7.4°C 76% Calm Calm -- 30.28 in1025.4 mb 0.00 in0.0 mm 0.00 in0.0 mm 0.00 in0.0 mm
11:30 PM 24.9°F-3.9°C 18.2°F-7.7°C 75% 0.3 mph NNE0.5 kmh NNE 1.6 mph2.6 kmh 30.28 in1025.4 mb 0.00 in0.0 mm 0.00 in0.0 mm 0.00 in0.0 mm
11:35 PM 24.8°F-4.0°C 18.0°F-7.8°C 75% 0.5 mph NNE0.8 kmh NNE 1.6 mph2.6 kmh 30.28 in1025.4 mb 0.00 in0.0 mm 0.00 in0.0 mm 0.00 in0.0 mm
11:40 PM 24.8°F-4.0°C 18.0°F-7.8°C 75% 0.5 mph NE0.8 kmh NE 3.1 mph5.0 kmh 30.28 in1025.4 mb 0.00 in0.0 mm 0.00 in0.0 mm 0.00 in0.0 mm
11:45 PM 24.8°F-4.0°C 18.0°F-7.8°C 75% 1.8 mph NE2.9 kmh NE 3.1 mph5.0 kmh 30.28 in1025.4 mb 0.00 in0.0 mm 0.00 in0.0 mm 0.00 in0.0 mm
11:50 PM 24.8°F-4.0°C 18.0°F-7.8°C 75% 1.6 mph NNE2.6 kmh NNE 2.2 mph3.5 kmh 30.28 in1025.4 mb 0.00 in0.0 mm 0.00 in0.0 mm 0.00 in0.0 mm
11:55 PM 24.6°F-4.1°C 17.8°F-7.9°C 75% 1.6 mph NE2.6 kmh NE 2.2 mph3.5 kmh 30.28 in1025.4 mb 0.00 in0.0 mm 0.00 in0.0 mm 0.00 in0.0 mm